ROMMA est une association bénévole à but non lucratif. Votre soutien est indispensable : ADHERER à ROMMA ou FAIRE un DON

Chamrousse - (38, Isère)

Massif de Belledonne (1800 m)   Longitude: 05° 52' 28" E   Latitude: 45° 06' 28" N Station partenaire n°3
 

Détail journalier du     <<     >>

Température Precipitation Humidité Pression Vent Dir Rafale Dir. rafale
Heure (°C) (mm) (%) (hPa) (km/h) (km/h)
01:00 4.20.2100100318N37N
02:00 4.30100100214N35N
03:00 4.30100100213N27NNO
04:00 4.20100100112NNO27NNO
05:00 4.20100100115N32N
06:00 3.90100100116N29N
07:00 3.90100100115N29N
08:00 3.90100100116NNO40N
09:00 3.60100100215NNO34NO
10:00 3.80100100215NNO92E
11:00 3.90100100310NNO53E
12:00 4.10100100314NNO52NNO
13:00 3.90100100318N74N
14:00 4.20100100319N39N
15:00 4.30100100318NNO37N
16:00 4.30100100420NO42ONO
17:00 4.40100100419NNO37NO
18:00 4.00.2100100523NO47ONO
19:00 3.80.4100100520NO40NNO
20:00 3.70.2100100619NNO40NO
21:00 3.60100100619NNO39NO
22:00 3.50100100719N37NNO
23:00 3.50100100717N34N
minuit 3.30100100713NNO26NNO

Graphique du 20-05-2008

 

Serveur OMMA